Time;durP1;ratioP1;P1;durP2;ratioP2;P2;SDS_P1;SDS_P2;PMS_P1;PMS_P2;Temp;Humidity;BMP_temperature;BMP_pressure;BME280_temperature;BME280_humidity;BME280_pressure;Samples;Min_cycle;Max_cycle;Signal;HPM_P1;HPM_P2
2022/10/19 00:02:56;;;;;;;5.90;5.30;;;14.80;99.90;;;;;;4891554;29;20419;-80
2022/10/19 00:05:40;;;;;;;7.67;5.97;;;14.70;99.90;;;;;;4918583;29;20406;-81
2022/10/19 00:08:25;;;;;;;7.80;5.13;;;14.70;99.90;;;;;;4933549;29;20535;-80
2022/10/19 00:11:11;;;;;;;21.53;5.43;;;14.70;99.90;;;;;;4934665;29;20432;-80
2022/10/19 00:13:56;;;;;;;5.70;5.07;;;14.70;99.90;;;;;;4934261;29;20468;-81
2022/10/19 00:16:43;;;;;;;7.07;5.40;;;14.70;99.90;;;;;;4934080;29;20419;-81
2022/10/19 00:19:28;;;;;;;17.13;6.23;;;14.70;99.90;;;;;;4944940;29;20405;-81
2022/10/19 00:22:12;;;;;;;14.93;5.00;;;14.70;99.90;;;;;;4968058;28;20482;-81
2022/10/19 00:24:56;;;;;;;7.40;5.73;;;14.70;99.90;;;;;;4954008;29;20451;-82
2022/10/19 00:27:41;;;;;;;15.00;4.87;;;14.60;99.90;;;;;;4966976;28;20403;-81
2022/10/19 00:30:25;;;;;;;15.40;4.70;;;14.60;99.90;;;;;;4954096;29;20482;-81
2022/10/19 00:33:32;;;;;;;16.70;5.10;;;14.50;99.90;;;;;;4985586;28;20945;-80
2022/10/19 00:36:24;;;;;;;7.70;5.40;;;14.50;99.90;;;;;;4953827;29;20630;-82
2022/10/19 00:39:12;;;;;;;5.60;5.07;;;14.50;99.90;;;;;;4974363;29;20427;-81
2022/10/19 00:41:56;;;;;;;10.37;5.87;;;14.50;99.90;;;;;;4915567;29;20520;-79
2022/10/19 00:45:02;;;;;;;12.10;6.10;;;14.40;99.90;;;;;;4901627;29;20430;-79
2022/10/19 00:47:47;;;;;;;9.83;5.10;;;14.40;99.90;;;;;;4924724;29;20546;-81
2022/10/19 00:50:31;;;;;;;7.00;4.80;;;14.50;99.90;;;;;;4921391;29;20430;-81
2022/10/19 00:53:16;;;;;;;9.63;4.93;;;14.40;99.90;;;;;;4902757;29;20488;-81
2022/10/19 00:56:05;;;;;;;7.03;5.60;;;14.40;99.90;;;;;;4917347;29;20420;-81
2022/10/19 00:58:50;;;;;;;11.00;6.10;;;14.50;99.90;;;;;;4929166;29;20391;-80
2022/10/19 01:01:37;;;;;;;8.70;5.60;;;14.50;99.90;;;;;;4878790;29;20402;-80
2022/10/19 01:04:23;;;;;;;6.73;5.30;;;14.40;99.90;;;;;;4822592;29;20612;-82
2022/10/19 01:07:08;;;;;;;17.97;4.93;;;14.40;99.90;;;;;;4862799;29;20459;-82
2022/10/19 01:09:53;;;;;;;15.63;5.00;;;14.40;99.90;;;;;;4852115;29;20443;-80
2022/10/19 01:12:57;;;;;;;9.57;4.77;;;14.40;99.90;;;;;;4858261;29;20419;-81
2022/10/19 01:16:06;;;;;;;8.60;4.37;;;14.40;99.90;;;;;;4871261;29;20411;-81
2022/10/19 01:19:17;;;;;;;5.33;4.80;;;14.40;99.90;;;;;;4877896;29;20967;-81
2022/10/19 01:22:32;;;;;;;17.00;4.20;;;14.30;99.90;;;;;;4892346;29;20418;-79
2022/10/19 01:25:37;;;;;;;20.70;5.23;;;14.10;99.90;;;;;;4891983;29;20421;-81
2022/10/19 01:28:47;;;;;;;7.03;4.50;;;14.10;99.90;;;;;;4890585;29;20461;-79
2022/10/19 01:31:55;;;;;;;65.83;6.37;;;14.10;99.90;;;;;;4877477;29;20420;-82
2022/10/19 01:34:51;;;;;;;15.40;4.90;;;13.70;99.90;;;;;;4934492;29;20452;-80
2022/10/19 01:37:51;;;;;;;14.10;4.57;;;13.70;99.90;;;;;;4924771;28;20519;-79
2022/10/19 01:40:50;;;;;;;8.30;4.97;;;13.90;99.90;;;;;;4993460;28;20405;-79
2022/10/19 01:44:02;;;;;;;9.47;4.23;;;13.90;99.90;;;;;;4973028;28;20440;-80
2022/10/19 01:46:53;;;;;;;13.43;4.97;;;14.00;99.90;;;;;;4974371;28;20468;-81
2022/10/19 01:49:47;;;;;;;8.27;4.40;;;14.00;99.90;;;;;;4970474;28;20473;-82
2022/10/19 01:52:32;;;;;;;5.43;4.00;;;14.00;99.90;;;;;;4985097;28;20405;-81
2022/10/19 01:55:17;;;;;;;10.90;5.03;;;14.00;99.90;;;;;;5003329;28;20431;-80
2022/10/19 01:58:06;;;;;;;5.57;4.40;;;14.10;99.90;;;;;;5004350;28;20431;-81
2022/10/19 02:00:52;;;;;;;24.43;4.77;;;14.00;99.90;;;;;;4977054;28;20381;-82
2022/10/19 02:03:39;;;;;;;13.73;4.40;;;13.90;99.90;;;;;;4989774;28;20999;-81
2022/10/19 02:06:24;;;;;;;5.80;4.10;;;13.70;99.90;;;;;;5006863;28;20393;-82
2022/10/19 02:09:09;;;;;;;20.17;5.40;;;13.70;99.90;;;;;;5004608;28;20517;-81
2022/10/19 02:11:58;;;;;;;15.97;5.10;;;13.80;99.90;;;;;;5008859;28;20416;-82
2022/10/19 02:14:47;;;;;;;6.20;3.70;;;13.80;99.90;;;;;;5005444;28;20388;-80
2022/10/19 02:17:36;;;;;;;6.67;4.63;;;13.80;99.90;;;;;;4988072;28;20406;-82
2022/10/19 02:20:22;;;;;;;11.03;4.47;;;13.80;99.90;;;;;;4958753;28;20473;-81
2022/10/19 02:23:07;;;;;;;28.40;5.60;;;13.80;99.90;;;;;;4973314;28;20389;-82
2022/10/19 02:25:52;;;;;;;7.77;4.80;;;13.80;99.90;;;;;;4974571;28;20413;-81
2022/10/19 02:28:36;;;;;;;9.33;5.20;;;13.80;99.90;;;;;;4970500;28;20469;-82
2022/10/19 02:31:21;;;;;;;20.73;4.83;;;13.80;99.90;;;;;;4957675;28;20437;-81
2022/10/19 02:34:07;;;;;;;6.17;5.03;;;13.60;99.90;;;;;;4970070;28;20385;-81
2022/10/19 02:36:52;;;;;;;13.10;5.50;;;13.70;99.90;;;;;;4956541;28;20440;-80
2022/10/19 02:39:37;;;;;;;9.50;4.63;;;13.70;99.90;;;;;;4970493;28;20402;-81
2022/10/19 02:42:31;;;;;;;10.63;4.80;;;13.70;99.90;;;;;;4970985;28;20420;-81
2022/10/19 02:45:24;;;;;;;39.93;6.30;;;13.60;99.90;;;;;;4948174;28;20458;-79
2022/10/19 02:48:16;;;;;;;7.17;5.77;;;13.50;99.90;;;;;;4974241;28;20765;-81
2022/10/19 02:51:00;;;;;;;13.27;5.30;;;13.70;99.90;;;;;;4985976;28;20483;-81
2022/10/19 02:53:45;;;;;;;8.87;5.30;;;13.70;99.90;;;;;;4984889;28;20443;-82
2022/10/19 02:56:29;;;;;;;17.47;6.63;;;13.80;99.90;;;;;;4984975;28;20421;-81
2022/10/19 02:59:14;;;;;;;6.03;5.20;;;13.90;99.90;;;;;;4969644;28;20394;-82
2022/10/19 03:01:58;;;;;;;6.70;4.80;;;13.90;99.90;;;;;;4984470;28;20478;-81
2022/10/19 03:04:43;;;;;;;6.93;5.30;;;13.90;99.90;;;;;;4987244;28;20421;-81
2022/10/19 03:07:27;;;;;;;10.17;4.60;;;13.90;99.90;;;;;;4987903;28;20421;-81
2022/10/19 03:10:12;;;;;;;11.03;5.43;;;13.90;99.90;;;;;;4987762;28;20456;-81
2022/10/19 03:12:57;;;;;;;7.33;5.40;;;13.90;99.90;;;;;;4987467;28;20382;-82
2022/10/19 03:15:43;;;;;;;6.60;4.63;;;13.80;99.90;;;;;;4987579;28;20390;-82
2022/10/19 03:18:27;;;;;;;5.70;4.60;;;13.90;99.90;;;;;;4988867;28;20389;-81
2022/10/19 03:21:12;;;;;;;5.80;3.83;;;13.90;99.90;;;;;;5001867;28;20452;-82
2022/10/19 03:23:56;;;;;;;6.73;4.10;;;13.80;99.90;;;;;;5007061;28;20476;-81
2022/10/19 03:26:41;;;;;;;5.67;5.07;;;13.80;99.90;;;;;;5007104;28;20713;-82
2022/10/19 03:29:25;;;;;;;5.67;4.97;;;13.80;99.90;;;;;;5006360;28;20440;-82
2022/10/19 03:32:09;;;;;;;6.03;4.87;;;13.80;99.90;;;;;;5006058;28;20792;-82
2022/10/19 03:34:54;;;;;;;5.37;4.37;;;13.70;99.90;;;;;;5008141;28;20449;-81
2022/10/19 03:37:38;;;;;;;5.40;4.90;;;13.60;99.90;;;;;;5007524;28;20424;-82
2022/10/19 03:40:23;;;;;;;16.83;4.17;;;13.70;99.90;;;;;;5014840;28;20388;-78
2022/10/19 03:43:08;;;;;;;5.00;4.27;;;13.80;99.90;;;;;;4998708;28;20446;-81
2022/10/19 03:45:52;;;;;;;6.70;4.63;;;13.70;99.90;;;;;;5004127;28;20584;-81
2022/10/19 03:48:37;;;;;;;5.80;5.10;;;13.70;99.90;;;;;;5011025;28;20459;-80
2022/10/19 03:51:26;;;;;;;7.10;4.80;;;13.60;99.90;;;;;;5034054;28;20415;-79
2022/10/19 03:54:13;;;;;;;5.73;5.00;;;13.60;99.90;;;;;;5033545;28;20404;-81
2022/10/19 03:56:58;;;;;;;7.90;5.63;;;13.70;99.90;;;;;;5034047;28;20419;-81
2022/10/19 03:59:42;;;;;;;7.07;5.37;;;13.70;99.90;;;;;;5029488;28;20416;-81
2022/10/19 04:02:26;;;;;;;7.00;4.90;;;13.70;99.90;;;;;;5029523;28;20594;-79
2022/10/19 04:05:12;;;;;;;7.60;5.33;;;13.60;99.90;;;;;;5006309;28;20392;-81
2022/10/19 04:07:57;;;;;;;5.20;4.70;;;13.70;99.90;;;;;;5035097;28;20419;-78
2022/10/19 04:10:41;;;;;;;16.30;5.63;;;13.70;99.90;;;;;;5007018;28;20392;-78
2022/10/19 04:13:26;;;;;;;4.70;4.30;;;13.70;99.90;;;;;;5035356;28;20380;-80
2022/10/19 04:16:12;;;;;;;10.07;4.87;;;13.70;99.90;;;;;;5031190;28;20395;-81
2022/10/19 04:18:57;;;;;;;7.63;4.10;;;13.70;99.90;;;;;;5026491;28;20387;-81
2022/10/19 04:21:44;;;;;;;6.63;4.10;;;13.70;99.90;;;;;;5012051;28;20471;-81
2022/10/19 04:24:28;;;;;;;5.27;4.57;;;13.70;99.90;;;;;;5027761;28;20387;-81
2022/10/19 04:27:12;;;;;;;4.93;4.50;;;13.70;99.90;;;;;;5012416;28;20388;-81
2022/10/19 04:29:56;;;;;;;4.80;4.37;;;13.80;99.90;;;;;;5026194;28;20593;-80
2022/10/19 04:32:41;;;;;;;4.77;3.50;;;13.80;99.90;;;;;;5026122;28;20892;-80
2022/10/19 04:35:25;;;;;;;9.00;5.53;;;13.80;99.90;;;;;;5025025;28;20407;-81
2022/10/19 04:38:09;;;;;;;16.03;4.20;;;13.80;99.90;;;;;;5025188;28;20423;-81
2022/10/19 04:40:55;;;;;;;4.73;4.10;;;13.70;99.90;;;;;;4991064;28;20409;-82
2022/10/19 04:43:39;;;;;;;4.83;3.83;;;13.70;99.90;;;;;;5004556;28;20388;-81
2022/10/19 04:46:25;;;;;;;4.67;4.27;;;13.60;99.90;;;;;;5003866;28;20396;-82
2022/10/19 04:49:09;;;;;;;7.37;4.23;;;13.50;99.90;;;;;;5004954;28;20452;-81
2022/10/19 04:51:53;;;;;;;4.97;4.10;;;13.60;99.90;;;;;;5004276;28;20395;-81
2022/10/19 04:54:38;;;;;;;4.50;3.70;;;13.50;99.90;;;;;;4991306;28;20470;-81
2022/10/19 04:57:23;;;;;;;3.93;3.50;;;13.50;99.90;;;;;;5004138;28;20443;-81
2022/10/19 05:00:07;;;;;;;5.23;4.73;;;13.50;99.90;;;;;;5004006;28;20825;-81
2022/10/19 05:02:52;;;;;;;5.80;4.43;;;13.50;99.90;;;;;;5004510;28;20416;-81
2022/10/19 05:05:36;;;;;;;5.67;3.87;;;13.40;99.90;;;;;;4928328;29;20827;-81
2022/10/19 05:08:21;;;;;;;6.10;4.17;;;13.40;99.90;;;;;;4928567;29;20954;-78
2022/10/19 05:11:08;;;;;;;5.00;4.17;;;13.50;99.90;;;;;;4929982;29;20411;-78
2022/10/19 05:13:54;;;;;;;5.37;3.40;;;13.40;99.90;;;;;;4942232;29;20427;-78
2022/10/19 05:16:38;;;;;;;10.93;5.17;;;13.30;99.90;;;;;;4956597;29;20391;-78
2022/10/19 05:19:23;;;;;;;16.17;4.83;;;13.20;99.90;;;;;;4956901;29;20517;-81
2022/10/19 05:22:08;;;;;;;15.40;4.30;;;12.90;99.90;;;;;;4947519;29;20411;-82
2022/10/19 05:25:12;;;;;;;23.93;5.20;;;12.50;99.90;;;;;;4949134;29;20871;-80
2022/10/19 05:27:56;;;;;;;7.30;4.50;;;12.50;99.90;;;;;;4952622;29;20974;-82
2022/10/19 05:30:41;;;;;;;16.10;5.50;;;12.50;99.90;;;;;;4943886;29;20415;-80
2022/10/19 05:33:25;;;;;;;25.37;5.50;;;12.50;99.90;;;;;;4927171;29;20499;-81
2022/10/19 05:36:25;;;;;;;7.83;5.33;;;12.60;99.90;;;;;;4932187;29;20415;-81
2022/10/19 05:39:14;;;;;;;19.83;5.60;;;12.80;99.90;;;;;;4974798;28;20437;-81
2022/10/19 05:41:59;;;;;;;21.63;4.60;;;12.70;99.90;;;;;;4966988;28;20414;-81
2022/10/19 05:44:43;;;;;;;6.00;5.40;;;12.90;99.90;;;;;;4967208;28;20411;-81
2022/10/19 05:47:28;;;;;;;5.70;4.67;;;13.00;99.90;;;;;;4960193;28;20448;-81
2022/10/19 05:50:13;;;;;;;7.20;6.43;;;13.10;99.90;;;;;;4973860;28;20449;-82
2022/10/19 05:52:57;;;;;;;9.43;4.40;;;13.10;99.90;;;;;;4973035;28;20554;-80
2022/10/19 05:55:43;;;;;;;12.63;5.40;;;13.20;99.90;;;;;;4958300;29;20433;-81
2022/10/19 05:58:28;;;;;;;10.90;5.57;;;12.90;99.90;;;;;;4953427;28;20538;-78
2022/10/19 06:01:14;;;;;;;7.80;4.50;;;13.00;99.90;;;;;;4971341;28;20400;-81
2022/10/19 06:03:59;;;;;;;35.67;7.13;;;13.10;99.90;;;;;;4963427;28;20446;-82
2022/10/19 06:06:46;;;;;;;7.57;5.53;;;13.10;99.90;;;;;;4960138;28;20618;-82
2022/10/19 06:09:34;;;;;;;11.23;6.27;;;13.20;99.90;;;;;;4990372;28;20476;-82
2022/10/19 06:12:19;;;;;;;8.50;5.20;;;13.20;99.90;;;;;;4989246;28;20916;-82
2022/10/19 06:15:03;;;;;;;14.33;5.40;;;13.30;99.90;;;;;;4993558;28;20424;-81
2022/10/19 06:17:47;;;;;;;9.27;5.70;;;13.20;99.90;;;;;;4985609;28;20472;-81
2022/10/19 06:20:41;;;;;;;7.33;5.47;;;13.20;99.90;;;;;;4983994;28;20548;-81
2022/10/19 06:23:25;;;;;;;8.60;5.43;;;13.30;99.90;;;;;;4972224;28;21134;-82
2022/10/19 06:26:12;;;;;;;8.70;5.37;;;13.30;99.90;;;;;;4983847;28;20533;-81
2022/10/19 06:28:59;;;;;;;7.10;5.50;;;13.30;99.90;;;;;;4976996;28;21070;-80
2022/10/19 06:31:45;;;;;;;7.70;5.23;;;13.40;99.90;;;;;;4986266;28;20440;-80
2022/10/19 06:34:29;;;;;;;9.90;5.50;;;13.40;99.90;;;;;;4995182;28;20476;-79
2022/10/19 06:37:14;;;;;;;9.20;6.00;;;13.40;99.90;;;;;;4988193;28;20473;-80
2022/10/19 06:39:58;;;;;;;9.03;5.43;;;13.40;99.90;;;;;;4981730;28;20441;-79
2022/10/19 06:42:42;;;;;;;12.20;5.07;;;13.40;99.90;;;;;;5026770;28;20447;-80
2022/10/19 06:45:27;;;;;;;10.73;6.17;;;13.40;99.90;;;;;;5026709;28;20462;-80
2022/10/19 06:48:31;;;;;;;7.13;5.10;;;13.50;99.90;;;;;;5015728;28;20462;-78
2022/10/19 06:51:16;;;;;;;8.27;5.57;;;13.50;99.90;;;;;;5008560;28;20420;-79
2022/10/19 06:54:00;;;;;;;6.90;5.30;;;13.60;99.90;;;;;;4971072;28;20647;-82
2022/10/19 06:56:45;;;;;;;6.70;5.00;;;13.60;99.90;;;;;;4958838;28;20455;-81
2022/10/19 06:59:29;;;;;;;7.73;5.53;;;13.60;99.90;;;;;;4996189;28;20428;-81
2022/10/19 07:02:15;;;;;;;7.57;5.60;;;13.60;99.90;;;;;;4992755;28;20428;-81
2022/10/19 07:05:19;;;;;;;8.43;6.07;;;13.60;99.90;;;;;;4976482;28;20438;-80
2022/10/19 07:08:04;;;;;;;5.43;4.53;;;13.70;99.90;;;;;;4953931;28;20413;-78
2022/10/19 07:10:53;;;;;;;6.57;5.10;;;13.70;99.90;;;;;;4980006;28;20514;-80
2022/10/19 07:13:38;;;;;;;10.70;6.70;;;13.80;99.90;;;;;;4977025;28;20446;-81
2022/10/19 07:16:26;;;;;;;7.80;5.83;;;13.80;99.90;;;;;;4976540;28;20446;-83
2022/10/19 07:19:13;;;;;;;8.47;6.80;;;13.80;99.90;;;;;;4968447;28;20448;-78
2022/10/19 07:22:18;;;;;;;10.23;6.87;;;13.80;99.90;;;;;;4967442;28;20473;-78
2022/10/19 07:25:04;;;;;;;10.90;5.00;;;13.70;99.90;;;;;;4970548;28;20448;-78
2022/10/19 07:27:49;;;;;;;8.07;6.47;;;13.80;99.90;;;;;;4956909;29;20442;-82
2022/10/19 07:30:38;;;;;;;8.37;5.87;;;13.70;99.90;;;;;;4971598;28;20490;-81
2022/10/19 07:33:23;;;;;;;8.70;6.07;;;13.80;99.90;;;;;;4943993;28;20445;-80
2022/10/19 07:36:09;;;;;;;11.27;6.50;;;13.70;99.90;;;;;;4971948;28;20457;-81
2022/10/19 07:38:54;;;;;;;9.87;6.40;;;13.70;99.90;;;;;;4979792;28;20457;-81
2022/10/19 07:41:39;;;;;;;9.73;5.67;;;13.70;99.90;;;;;;4966600;28;20481;-82
2022/10/19 07:44:24;;;;;;;8.50;6.43;;;13.80;99.90;;;;;;4963261;28;20433;-81
2022/10/19 07:47:09;;;;;;;7.47;6.20;;;13.90;99.90;;;;;;4979756;28;20768;-80
2022/10/19 07:49:53;;;;;;;9.03;5.40;;;13.90;99.90;;;;;;4971968;28;20473;-80
2022/10/19 07:52:37;;;;;;;9.37;7.20;;;14.00;99.90;;;;;;4961576;28;20433;-80
2022/10/19 07:55:22;;;;;;;9.13;6.60;;;14.10;99.90;;;;;;4952621;28;20528;-79
2022/10/19 07:58:06;;;;;;;8.27;7.30;;;14.20;99.90;;;;;;4967388;28;21063;-80
2022/10/19 08:00:50;;;;;;;7.77;6.10;;;14.10;99.90;;;;;;4964715;28;21016;-80
2022/10/19 08:03:35;;;;;;;6.90;5.90;;;14.10;99.90;;;;;;4958397;28;20865;-80
2022/10/19 08:06:20;;;;;;;9.60;6.83;;;14.10;99.90;;;;;;4989576;28;20787;-79
2022/10/19 08:09:05;;;;;;;9.80;6.97;;;14.10;99.90;;;;;;5001785;28;20498;-80
2022/10/19 08:11:49;;;;;;;8.60;6.73;;;14.10;99.90;;;;;;5006824;28;20495;-79
2022/10/19 08:14:33;;;;;;;7.27;6.43;;;14.20;99.90;;;;;;5003284;28;20502;-79
2022/10/19 08:17:18;;;;;;;7.10;5.70;;;14.10;99.90;;;;;;5004334;28;20990;-81
2022/10/19 08:20:04;;;;;;;9.37;6.57;;;14.20;99.90;;;;;;5001955;28;20767;-80
2022/10/19 08:22:48;;;;;;;9.50;6.40;;;14.20;99.90;;;;;;4996734;28;20498;-80
2022/10/19 08:25:32;;;;;;;13.43;7.17;;;14.20;99.90;;;;;;5004551;28;20467;-81
2022/10/19 08:28:16;;;;;;;8.87;5.80;;;14.20;99.90;;;;;;5003729;28;21094;-79
2022/10/19 08:31:17;;;;;;;7.20;6.40;;;14.20;99.90;;;;;;5000194;28;20431;-80
2022/10/19 08:34:02;;;;;;;7.23;5.57;;;14.20;99.90;;;;;;5004572;28;20839;-80
2022/10/19 08:36:46;;;;;;;7.20;6.47;;;14.30;99.90;;;;;;5004854;28;20470;-80
2022/10/19 08:39:30;;;;;;;8.13;6.50;;;14.40;99.90;;;;;;5004961;28;20512;-80
2022/10/19 08:42:21;;;;;;;9.03;6.67;;;14.50;99.90;;;;;;5002675;28;20470;-80
2022/10/19 08:45:35;;;;;;;10.67;6.17;;;14.60;99.90;;;;;;5003365;28;20448;-80
2022/10/19 08:48:27;;;;;;;9.70;7.40;;;14.90;99.90;;;;;;5004091;28;20494;-81
2022/10/19 08:51:12;;;;;;;10.03;6.50;;;15.60;99.90;;;;;;5003312;28;20475;-80
2022/10/19 08:54:00;;;;;;;7.90;6.87;;;16.30;99.90;;;;;;5003976;28;20471;-81
2022/10/19 08:57:06;;;;;;;7.67;5.30;;;16.50;99.90;;;;;;5009212;28;20466;-79
2022/10/19 09:00:05;;;;;;;10.30;6.40;;;16.00;99.90;;;;;;5021543;28;20479;-80
2022/10/19 09:03:15;;;;;;;13.20;7.13;;;15.50;99.90;;;;;;5017595;28;20574;-79
2022/10/19 09:06:31;;;;;;;7.63;6.53;;;15.80;99.90;;;;;;5030991;28;20426;-81
2022/10/19 09:09:28;;;;;;;10.57;6.57;;;16.00;99.90;;;;;;5029351;28;20467;-80
2022/10/19 09:12:20;;;;;;;8.23;6.80;;;17.10;99.90;;;;;;5011758;28;20466;-81
2022/10/19 09:15:37;;;;;;;14.10;9.17;;;17.20;99.90;;;;;;5029577;28;21264;-81
2022/10/19 09:18:26;;;;;;;9.93;8.50;;;17.10;99.90;;;;;;4962201;28;20441;-80
2022/10/19 09:21:19;;;;;;;7.77;6.00;;;17.30;99.90;;;;;;4957508;28;20553;-79
2022/10/19 09:24:07;;;;;;;16.70;8.27;;;17.30;99.90;;;;;;4962587;29;20430;-79
2022/10/19 09:26:54;;;;;;;13.00;7.23;;;17.60;99.90;;;;;;4964440;29;20550;-80
2022/10/19 09:29:44;;;;;;;9.53;7.80;;;17.40;99.90;;;;;;4962707;28;20652;-79
2022/10/19 09:32:33;;;;;;;10.07;6.40;;;17.60;99.90;;;;;;4939463;29;20486;-81
2022/10/19 09:35:43;;;;;;;7.67;5.90;;;18.80;99.90;;;;;;4934856;29;20466;-81
2022/10/19 09:38:28;;;;;;;10.00;7.10;;;19.80;99.90;;;;;;4909001;29;20554;-80
2022/10/19 09:41:17;;;;;;;12.73;7.37;;;20.50;99.90;;;;;;4932952;29;20437;-80
2022/10/19 09:44:01;;;;;;;11.40;6.87;;;19.90;99.90;;;;;;4928887;29;20478;-79
2022/10/19 09:46:51;;;;;;;13.50;8.53;;;19.40;99.90;;;;;;4930275;29;20482;-79
2022/10/19 09:49:39;;;;;;;9.97;7.37;;;18.80;99.90;;;;;;4917233;29;20463;-79
2022/10/19 09:52:34;;;;;;;8.07;6.80;;;18.60;99.90;;;;;;4933610;29;20439;-83
2022/10/19 09:55:28;;;;;;;13.27;7.27;;;18.10;99.90;;;;;;4927668;29;20447;-81
2022/10/19 09:58:19;;;;;;;11.73;6.60;;;17.80;99.90;;;;;;4917363;29;20494;-79
2022/10/19 10:01:04;;;;;;;13.17;7.60;;;21.00;99.90;;;;;;4893155;29;21044;-79
2022/10/19 10:03:49;;;;;;;16.57;13.13;;;19.80;99.90;;;;;;4908789;29;20618;-80
2022/10/19 10:06:41;;;;;;;12.33;8.20;;;19.10;99.90;;;;;;4887507;29;20445;-85
2022/10/19 10:09:28;;;;;;;9.10;7.43;;;18.20;99.90;;;;;;4912188;29;20495;-80
2022/10/19 10:12:14;;;;;;;8.43;7.50;;;18.00;99.90;;;;;;4912889;28;21355;-80
2022/10/19 10:14:58;;;;;;;10.93;7.20;;;16.80;99.90;;;;;;4943501;29;20604;-80
2022/10/19 10:17:48;;;;;;;25.13;7.70;;;16.40;99.90;;;;;;4955274;29;21071;-79
2022/10/19 10:20:35;;;;;;;14.60;8.33;;;16.50;99.90;;;;;;4951939;28;20483;-80
2022/10/19 10:23:24;;;;;;;11.97;8.33;;;16.80;99.90;;;;;;4962603;28;20417;-79
2022/10/19 10:26:18;;;;;;;13.70;8.80;;;17.30;99.90;;;;;;4962904;28;20502;-79
2022/10/19 10:29:02;;;;;;;8.77;6.13;;;19.00;99.90;;;;;;4966492;28;20476;-80
2022/10/19 10:31:52;;;;;;;12.60;6.80;;;20.00;99.90;;;;;;4989266;28;20512;-81
2022/10/19 10:34:40;;;;;;;9.70;7.20;;;19.30;99.90;;;;;;5005513;28;20496;-80
2022/10/19 10:37:43;;;;;;;9.90;7.23;;;19.60;99.90;;;;;;5017683;28;20508;-82
2022/10/19 10:41:01;;;;;;;8.20;6.13;;;20.50;99.90;;;;;;5014793;28;20450;-81
2022/10/19 10:44:11;;;;;;;6.23;5.10;;;20.30;99.90;;;;;;4985191;28;20970;-79
2022/10/19 10:46:58;;;;;;;7.00;5.37;;;20.80;99.90;;;;;;4972863;28;20521;-80
2022/10/19 10:49:55;;;;;;;10.70;6.20;;;22.60;99.90;;;;;;4962535;28;20504;-78
2022/10/19 10:52:40;;;;;;;9.47;6.33;;;22.60;99.90;;;;;;4972412;28;20930;-81
2022/10/19 10:55:25;;;;;;;9.50;6.10;;;23.40;99.90;;;;;;4953649;28;20444;-80
2022/10/19 10:58:29;;;;;;;6.83;4.70;;;22.80;99.90;;;;;;4952511;28;20504;-77
2022/10/19 11:01:21;;;;;;;7.90;5.77;;;22.70;99.90;;;;;;4950631;28;20437;-79
2022/10/19 11:04:23;;;;;;;7.23;5.90;;;21.50;99.90;;;;;;4915129;29;20548;-79
2022/10/19 11:07:17;;;;;;;8.33;5.50;;;20.70;99.90;;;;;;4919492;29;21157;-79
2022/10/19 11:10:13;;;;;;;7.03;5.87;;;21.10;99.90;;;;;;4907768;29;20609;-81
2022/10/19 11:13:13;;;;;;;11.57;6.50;;;21.20;99.90;;;;;;4910649;29;20930;-79
2022/10/19 11:16:09;;;;;;;7.10;5.43;;;20.10;99.90;;;;;;4944145;28;20494;-80
2022/10/19 11:19:15;;;;;;;8.93;5.63;;;19.50;99.90;;;;;;4934670;29;20904;-81
2022/10/19 11:22:36;;;;;;;10.17;6.63;;;20.10;99.90;;;;;;4952636;28;20460;-79
2022/10/19 11:25:43;;;;;;;8.40;5.97;;;21.40;99.90;;;;;;4949709;28;20577;-80
2022/10/19 11:28:44;;;;;;;6.40;5.50;;;20.80;99.90;;;;;;4945723;28;20497;-80
2022/10/19 11:31:46;;;;;;;6.77;6.17;;;21.10;99.90;;;;;;4955069;28;20459;-82
2022/10/19 11:34:59;;;;;;;6.60;6.10;;;22.00;99.90;;;;;;4975956;28;20946;-81
2022/10/19 11:38:04;;;;;;;6.83;5.20;;;22.80;99.90;;;;;;5005302;28;20798;-79
2022/10/19 11:41:03;;;;;;;6.20;5.60;;;24.40;99.90;;;;;;5007768;28;20849;-82
2022/10/19 11:44:08;;;;;;;5.33;4.93;;;24.10;99.90;;;;;;5003819;28;20503;-79
2022/10/19 11:47:10;;;;;;;14.87;5.70;;;23.60;99.90;;;;;;5003050;28;20467;-80
2022/10/19 11:50:12;;;;;;;5.60;5.10;;;24.90;99.90;;;;;;5007933;28;20450;-79
2022/10/19 11:53:11;;;;;;;6.20;5.57;;;25.50;96.50;;;;;;5001099;28;20986;-81
2022/10/19 11:56:08;;;;;;;5.53;5.00;;;24.60;97.30;;;;;;5003844;28;20438;-80
2022/10/19 11:59:25;;;;;;;5.80;5.30;;;25.50;96.30;;;;;;5007026;28;20427;-83
2022/10/19 12:02:45;;;;;;;5.93;5.00;;;25.00;96.10;;;;;;5011888;28;21909;-80
2022/10/19 12:05:58;;;;;;;6.07;5.43;;;23.50;99.70;;;;;;5009377;28;20450;-81
2022/10/19 12:09:03;;;;;;;5.30;4.80;;;22.90;99.90;;;;;;5020176;28;20517;-81
2022/10/19 12:12:13;;;;;;;5.50;5.10;;;22.10;99.90;;;;;;4986045;28;20489;-80
2022/10/19 12:15:35;;;;;;;10.20;6.13;;;22.00;99.90;;;;;;5022281;28;20470;-81
2022/10/19 12:18:44;;;;;;;4.73;4.20;;;20.90;99.90;;;;;;5007689;28;20871;-80
2022/10/19 12:21:34;;;;;;;8.90;8.10;;;20.20;99.90;;;;;;5005136;28;20499;-81
2022/10/19 12:24:38;;;;;;;11.50;6.00;;;20.10;99.90;;;;;;4988760;28;20444;-80
2022/10/19 12:27:34;;;;;;;5.27;4.80;;;20.00;99.90;;;;;;4997110;28;20563;-80
2022/10/19 12:30:21;;;;;;;6.73;4.83;;;21.70;99.90;;;;;;4914191;29;20500;-81
2022/10/19 12:33:19;;;;;;;6.07;4.37;;;23.10;99.90;;;;;;4922748;29;20502;-81
2022/10/19 12:36:19;;;;;;;4.73;4.37;;;22.60;99.90;;;;;;4923329;29;20469;-78
2022/10/19 12:39:24;;;;;;;5.23;4.83;;;24.00;99.90;;;;;;4915431;29;20458;-79
2022/10/19 12:42:42;;;;;;;4.83;4.43;;;24.80;99.90;;;;;;4910515;29;20447;-81
2022/10/19 12:45:32;;;;;;;6.10;4.10;;;24.70;97.40;;;;;;4921299;29;20905;-79
2022/10/19 12:48:19;;;;;;;5.90;5.40;;;26.40;94.10;;;;;;4932536;29;20462;-81
2022/10/19 12:51:06;;;;;;;5.60;4.90;;;27.50;89.20;;;;;;4922752;29;20515;-82
2022/10/19 12:53:50;;;;;;;3.97;3.67;;;27.60;87.50;;;;;;4920197;29;20478;-79
2022/10/19 12:56:47;;;;;;;5.60;4.50;;;27.90;85.20;;;;;;4915796;29;20453;-79
2022/10/19 12:59:35;;;;;;;4.53;3.90;;;27.90;83.00;;;;;;4913807;29;20487;-80
2022/10/19 13:02:29;;;;;;;4.32;3.78;;;28.70;78.80;;;;;;5006354;28;20271;-81
2022/10/19 13:05:23;;;;;;;5.00;4.43;;;29.40;76.60;;;;;;5004859;28;20188;-80
2022/10/19 13:08:07;;;;;;;12.13;4.45;;;29.40;74.00;;;;;;5015897;28;20203;-79
2022/10/19 13:11:06;;;;;;;7.88;4.40;;;29.50;72.50;;;;;;5007039;28;20203;-79
2022/10/19 13:13:56;;;;;;;4.00;3.60;;;30.00;67.50;;;;;;5010300;28;20287;-79
2022/10/19 13:16:59;;;;;;;5.43;4.68;;;28.00;71.40;;;;;;5008026;28;20176;-83
2022/10/19 13:19:43;;;;;;;7.13;5.55;;;27.20;72.40;;;;;;5004615;28;20720;-81
2022/10/19 13:22:27;;;;;;;4.63;4.23;;;26.40;75.80;;;;;;5003361;28;20187;-80
2022/10/19 13:25:23;;;;;;;5.23;4.83;;;25.70;76.60;;;;;;5008655;28;20442;-82
2022/10/19 13:28:36;;;;;;;8.67;4.70;;;24.10;81.60;;;;;;5003466;28;20434;-79
2022/10/19 13:31:25;;;;;;;7.27;4.40;;;21.50;87.50;;;;;;5004540;28;20999;-80
2022/10/19 13:34:14;;;;;;;4.10;3.80;;;21.50;92.90;;;;;;5007924;28;20428;-79
2022/10/19 13:37:00;;;;;;;4.47;4.07;;;22.00;93.50;;;;;;5000523;28;20471;-82
2022/10/19 13:39:48;;;;;;;6.33;5.43;;;22.50;95.90;;;;;;5011415;28;20554;-82
2022/10/19 13:42:32;;;;;;;8.53;4.90;;;22.60;96.60;;;;;;5000245;28;20438;-81
2022/10/19 13:45:23;;;;;;;5.60;5.03;;;22.30;98.10;;;;;;5000963;28;20436;-80
2022/10/19 13:48:21;;;;;;;7.80;5.03;;;22.40;98.30;;;;;;5016686;28;20423;-80
2022/10/19 13:51:22;;;;;;;4.90;4.43;;;22.20;99.50;;;;;;5004916;28;20483;-80
2022/10/19 13:54:45;;;;;;;5.37;4.43;;;21.50;99.60;;;;;;5009565;28;20438;-79
2022/10/19 13:58:02;;;;;;;5.57;4.50;;;20.50;99.90;;;;;;5005394;28;20454;-78
2022/10/19 14:01:22;;;;;;;4.67;4.10;;;20.80;99.90;;;;;;5004873;28;20986;-79
2022/10/19 14:04:46;;;;;;;6.90;5.00;;;21.10;99.90;;;;;;5007920;28;20439;-80
2022/10/19 14:07:43;;;;;;;5.90;4.23;;;21.10;99.90;;;;;;5003038;28;20438;-79
2022/10/19 14:10:27;;;;;;;5.50;4.23;;;19.80;99.90;;;;;;5011184;28;20549;-78
2022/10/19 14:13:14;;;;;;;6.67;5.97;;;19.40;99.90;;;;;;4972223;28;20583;-82
2022/10/19 14:16:01;;;;;;;17.87;5.57;;;19.20;99.90;;;;;;4991000;28;20432;-82
2022/10/19 14:18:54;;;;;;;5.80;4.60;;;19.50;99.90;;;;;;4987495;28;20545;-80
2022/10/19 14:21:38;;;;;;;6.13;5.03;;;20.00;99.90;;;;;;4987872;28;20464;-81
2022/10/19 14:24:33;;;;;;;10.23;5.40;;;20.10;99.90;;;;;;4991542;28;20447;-81
2022/10/19 14:27:22;;;;;;;8.17;5.70;;;20.30;99.90;;;;;;4987549;28;20463;-82
2022/10/19 14:30:21;;;;;;;9.97;6.90;;;20.50;99.90;;;;;;4991814;28;20476;-80
2022/10/19 14:33:09;;;;;;;7.50;5.53;;;20.20;99.90;;;;;;4983028;28;20517;-80
2022/10/19 14:35:54;;;;;;;6.83;5.10;;;20.80;99.90;;;;;;4998335;28;20848;-81
2022/10/19 14:38:42;;;;;;;7.20;5.60;;;21.40;99.90;;;;;;4992672;28;20433;-82
2022/10/19 14:41:35;;;;;;;7.43;5.67;;;21.50;99.90;;;;;;4985276;28;20445;-82
2022/10/19 14:44:41;;;;;;;9.47;5.10;;;21.30;99.90;;;;;;4979622;28;20432;-80
2022/10/19 14:47:26;;;;;;;7.27;6.50;;;20.80;99.90;;;;;;4980451;28;21783;-81